sensor_id;sensor_type;location;lat;lon;timestamp;temperature;humidity
17442;DHT22;8838;50.144;8.176;2023-05-10T00:01:06;12.20;99.90
17442;DHT22;8838;50.144;8.176;2023-05-10T00:03:33;12.20;99.90
17442;DHT22;8838;50.144;8.176;2023-05-10T00:06:01;12.20;99.90
17442;DHT22;8838;50.144;8.176;2023-05-10T00:08:28;12.10;99.90
17442;DHT22;8838;50.144;8.176;2023-05-10T00:10:55;12.20;99.90
17442;DHT22;8838;50.144;8.176;2023-05-10T00:13:22;12.20;99.90
17442;DHT22;8838;50.144;8.176;2023-05-10T00:15:48;12.10;99.90
17442;DHT22;8838;50.144;8.176;2023-05-10T00:18:16;12.10;99.90
17442;DHT22;8838;50.144;8.176;2023-05-10T00:20:42;12.10;99.90
17442;DHT22;8838;50.144;8.176;2023-05-10T00:23:12;12.20;99.90
17442;DHT22;8838;50.144;8.176;2023-05-10T00:25:39;12.20;99.90
17442;DHT22;8838;50.144;8.176;2023-05-10T00:28:06;12.20;99.90
17442;DHT22;8838;50.144;8.176;2023-05-10T00:30:33;12.20;99.90
17442;DHT22;8838;50.144;8.176;2023-05-10T00:33:00;12.20;99.90
17442;DHT22;8838;50.144;8.176;2023-05-10T00:35:26;12.10;99.90
17442;DHT22;8838;50.144;8.176;2023-05-10T00:37:53;12.10;99.90
17442;DHT22;8838;50.144;8.176;2023-05-10T00:40:21;12.00;99.90
17442;DHT22;8838;50.144;8.176;2023-05-10T00:42:48;12.00;99.90
17442;DHT22;8838;50.144;8.176;2023-05-10T00:45:15;12.00;99.90
17442;DHT22;8838;50.144;8.176;2023-05-10T00:47:42;12.00;99.90
17442;DHT22;8838;50.144;8.176;2023-05-10T00:50:09;12.00;99.90
17442;DHT22;8838;50.144;8.176;2023-05-10T00:52:36;12.10;99.90
17442;DHT22;8838;50.144;8.176;2023-05-10T00:55:03;12.00;99.90
17442;DHT22;8838;50.144;8.176;2023-05-10T00:57:32;12.00;99.90
17442;DHT22;8838;50.144;8.176;2023-05-10T00:59:59;12.00;99.90
17442;DHT22;8838;50.144;8.176;2023-05-10T01:02:26;12.00;99.90
17442;DHT22;8838;50.144;8.176;2023-05-10T01:04:53;12.00;99.90
17442;DHT22;8838;50.144;8.176;2023-05-10T01:07:20;12.00;99.90
17442;DHT22;8838;50.144;8.176;2023-05-10T01:09:47;12.00;99.90
17442;DHT22;8838;50.144;8.176;2023-05-10T01:12:14;11.90;99.90
17442;DHT22;8838;50.144;8.176;2023-05-10T01:14:42;11.90;99.90
17442;DHT22;8838;50.144;8.176;2023-05-10T01:17:10;11.90;99.90
17442;DHT22;8838;50.144;8.176;2023-05-10T01:19:38;11.90;99.90
17442;DHT22;8838;50.144;8.176;2023-05-10T01:22:18;12.00;99.90
17442;DHT22;8838;50.144;8.176;2023-05-10T01:28:17;11.90;99.90
17442;DHT22;8838;50.144;8.176;2023-05-10T01:33:54;11.80;99.90
17442;DHT22;8838;50.144;8.176;2023-05-10T01:36:27;11.80;99.90
17442;DHT22;8838;50.144;8.176;2023-05-10T01:39:01;11.80;99.90
17442;DHT22;8838;50.144;8.176;2023-05-10T01:41:36;11.80;99.90
17442;DHT22;8838;50.144;8.176;2023-05-10T01:44:11;11.80;99.90
17442;DHT22;8838;50.144;8.176;2023-05-10T01:46:40;11.70;99.90
17442;DHT22;8838;50.144;8.176;2023-05-10T01:49:10;11.70;99.90
17442;DHT22;8838;50.144;8.176;2023-05-10T01:51:42;11.70;99.90
17442;DHT22;8838;50.144;8.176;2023-05-10T01:54:13;11.70;99.90
17442;DHT22;8838;50.144;8.176;2023-05-10T01:56:41;11.70;99.90
17442;DHT22;8838;50.144;8.176;2023-05-10T01:59:13;11.70;99.90
17442;DHT22;8838;50.144;8.176;2023-05-10T02:01:43;11.80;99.90
17442;DHT22;8838;50.144;8.176;2023-05-10T02:04:15;11.70;99.90
17442;DHT22;8838;50.144;8.176;2023-05-10T02:06:44;11.80;99.90
17442;DHT22;8838;50.144;8.176;2023-05-10T02:09:14;11.70;99.90
17442;DHT22;8838;50.144;8.176;2023-05-10T02:11:43;11.70;99.90
17442;DHT22;8838;50.144;8.176;2023-05-10T02:14:11;11.70;99.90
17442;DHT22;8838;50.144;8.176;2023-05-10T02:16:39;11.70;99.90
17442;DHT22;8838;50.144;8.176;2023-05-10T02:19:07;11.70;99.90
17442;DHT22;8838;50.144;8.176;2023-05-10T02:21:38;11.70;99.90
17442;DHT22;8838;50.144;8.176;2023-05-10T02:24:06;11.60;99.90
17442;DHT22;8838;50.144;8.176;2023-05-10T02:26:35;11.60;99.90
17442;DHT22;8838;50.144;8.176;2023-05-10T02:29:03;11.60;99.90
17442;DHT22;8838;50.144;8.176;2023-05-10T02:31:30;11.60;99.90
17442;DHT22;8838;50.144;8.176;2023-05-10T02:33:59;11.60;99.90
17442;DHT22;8838;50.144;8.176;2023-05-10T02:36:26;11.70;99.90
17442;DHT22;8838;50.144;8.176;2023-05-10T02:38:56;11.70;99.90
17442;DHT22;8838;50.144;8.176;2023-05-10T02:41:24;11.70;99.90
17442;DHT22;8838;50.144;8.176;2023-05-10T02:43:53;11.70;99.90
17442;DHT22;8838;50.144;8.176;2023-05-10T02:46:23;11.60;99.90
17442;DHT22;8838;50.144;8.176;2023-05-10T02:48:50;11.70;99.90
17442;DHT22;8838;50.144;8.176;2023-05-10T02:51:18;11.60;99.90
17442;DHT22;8838;50.144;8.176;2023-05-10T02:53:46;11.60;99.90
17442;DHT22;8838;50.144;8.176;2023-05-10T02:56:22;11.60;99.90
17442;DHT22;8838;50.144;8.176;2023-05-10T02:58:50;11.60;99.90
17442;DHT22;8838;50.144;8.176;2023-05-10T03:01:17;11.70;99.90
17442;DHT22;8838;50.144;8.176;2023-05-10T03:03:44;11.70;99.90
17442;DHT22;8838;50.144;8.176;2023-05-10T03:06:10;11.70;99.90
17442;DHT22;8838;50.144;8.176;2023-05-10T03:08:37;11.70;99.90
17442;DHT22;8838;50.144;8.176;2023-05-10T03:11:20;11.80;99.90
17442;DHT22;8838;50.144;8.176;2023-05-10T03:14:02;11.80;99.90
17442;DHT22;8838;50.144;8.176;2023-05-10T03:16:38;11.80;99.90
17442;DHT22;8838;50.144;8.176;2023-05-10T03:19:13;11.80;99.90
17442;DHT22;8838;50.144;8.176;2023-05-10T03:21:47;11.70;99.90
17442;DHT22;8838;50.144;8.176;2023-05-10T03:24:16;11.70;99.90
17442;DHT22;8838;50.144;8.176;2023-05-10T03:26:49;11.70;99.90
17442;DHT22;8838;50.144;8.176;2023-05-10T03:29:16;11.80;99.90
17442;DHT22;8838;50.144;8.176;2023-05-10T03:31:43;11.80;99.90
17442;DHT22;8838;50.144;8.176;2023-05-10T03:34:10;11.70;99.90
17442;DHT22;8838;50.144;8.176;2023-05-10T03:36:37;11.70;99.90
17442;DHT22;8838;50.144;8.176;2023-05-10T03:39:04;11.70;99.90
17442;DHT22;8838;50.144;8.176;2023-05-10T03:41:31;11.70;99.90
17442;DHT22;8838;50.144;8.176;2023-05-10T03:43:59;11.70;99.90
17442;DHT22;8838;50.144;8.176;2023-05-10T03:46:26;11.70;99.90
17442;DHT22;8838;50.144;8.176;2023-05-10T03:48:52;11.80;99.90
17442;DHT22;8838;50.144;8.176;2023-05-10T03:51:19;11.70;99.90
17442;DHT22;8838;50.144;8.176;2023-05-10T03:53:46;11.80;99.90
17442;DHT22;8838;50.144;8.176;2023-05-10T03:56:13;11.80;99.90
17442;DHT22;8838;50.144;8.176;2023-05-10T03:58:39;11.80;99.90
17442;DHT22;8838;50.144;8.176;2023-05-10T04:01:07;11.70;99.90
17442;DHT22;8838;50.144;8.176;2023-05-10T04:03:34;11.70;99.90
17442;DHT22;8838;50.144;8.176;2023-05-10T04:06:02;11.70;99.90
17442;DHT22;8838;50.144;8.176;2023-05-10T04:08:29;11.80;99.90
17442;DHT22;8838;50.144;8.176;2023-05-10T04:11:04;11.80;99.90
17442;DHT22;8838;50.144;8.176;2023-05-10T04:13:31;11.90;99.90
17442;DHT22;8838;50.144;8.176;2023-05-10T04:15:58;11.80;99.90
17442;DHT22;8838;50.144;8.176;2023-05-10T04:18:26;11.80;99.90
17442;DHT22;8838;50.144;8.176;2023-05-10T04:20:53;11.80;99.90
17442;DHT22;8838;50.144;8.176;2023-05-10T04:23:20;11.80;99.90
17442;DHT22;8838;50.144;8.176;2023-05-10T04:25:47;11.80;99.90
17442;DHT22;8838;50.144;8.176;2023-05-10T04:28:13;11.80;99.90
17442;DHT22;8838;50.144;8.176;2023-05-10T04:30:40;11.80;99.90
17442;DHT22;8838;50.144;8.176;2023-05-10T04:33:07;11.90;99.90
17442;DHT22;8838;50.144;8.176;2023-05-10T04:35:36;11.90;99.90
17442;DHT22;8838;50.144;8.176;2023-05-10T04:38:02;11.90;99.90
17442;DHT22;8838;50.144;8.176;2023-05-10T04:40:29;11.90;99.90
17442;DHT22;8838;50.144;8.176;2023-05-10T04:42:56;11.90;99.90
17442;DHT22;8838;50.144;8.176;2023-05-10T04:45:23;11.90;99.90
17442;DHT22;8838;50.144;8.176;2023-05-10T04:47:50;11.80;99.90
17442;DHT22;8838;50.144;8.176;2023-05-10T04:50:16;11.90;99.90
17442;DHT22;8838;50.144;8.176;2023-05-10T04:52:45;11.90;99.90
17442;DHT22;8838;50.144;8.176;2023-05-10T04:55:11;11.80;99.90
17442;DHT22;8838;50.144;8.176;2023-05-10T04:57:39;11.80;99.90
17442;DHT22;8838;50.144;8.176;2023-05-10T05:00:07;11.80;99.90
17442;DHT22;8838;50.144;8.176;2023-05-10T05:02:33;11.80;99.90
17442;DHT22;8838;50.144;8.176;2023-05-10T05:05:00;11.80;99.90
17442;DHT22;8838;50.144;8.176;2023-05-10T05:07:27;11.90;99.90
17442;DHT22;8838;50.144;8.176;2023-05-10T05:09:57;11.80;99.90
17442;DHT22;8838;50.144;8.176;2023-05-10T05:12:24;11.80;99.90
17442;DHT22;8838;50.144;8.176;2023-05-10T05:14:50;11.80;99.90
17442;DHT22;8838;50.144;8.176;2023-05-10T05:17:17;11.80;99.90
17442;DHT22;8838;50.144;8.176;2023-05-10T05:19:44;11.80;99.90
17442;DHT22;8838;50.144;8.176;2023-05-10T05:22:11;11.80;99.90
17442;DHT22;8838;50.144;8.176;2023-05-10T05:24:38;11.80;99.90
17442;DHT22;8838;50.144;8.176;2023-05-10T05:27:06;11.80;99.90
17442;DHT22;8838;50.144;8.176;2023-05-10T05:29:33;11.80;99.90
17442;DHT22;8838;50.144;8.176;2023-05-10T05:32:00;11.80;99.90
17442;DHT22;8838;50.144;8.176;2023-05-10T05:34:26;11.80;99.90
17442;DHT22;8838;50.144;8.176;2023-05-10T05:36:53;11.80;99.90
17442;DHT22;8838;50.144;8.176;2023-05-10T05:39:20;11.80;99.90
17442;DHT22;8838;50.144;8.176;2023-05-10T05:41:47;11.90;99.90
17442;DHT22;8838;50.144;8.176;2023-05-10T05:44:16;11.90;99.90
17442;DHT22;8838;50.144;8.176;2023-05-10T05:46:42;11.80;99.90
17442;DHT22;8838;50.144;8.176;2023-05-10T05:49:09;11.80;99.90
17442;DHT22;8838;50.144;8.176;2023-05-10T05:51:36;11.80;99.90
17442;DHT22;8838;50.144;8.176;2023-05-10T05:54:03;11.80;99.90
17442;DHT22;8838;50.144;8.176;2023-05-10T05:56:30;12.00;99.90
17442;DHT22;8838;50.144;8.176;2023-05-10T05:58:57;12.10;99.90
17442;DHT22;8838;50.144;8.176;2023-05-10T06:01:25;12.10;99.90
17442;DHT22;8838;50.144;8.176;2023-05-10T06:03:52;12.30;99.90
17442;DHT22;8838;50.144;8.176;2023-05-10T06:06:18;12.40;99.90
17442;DHT22;8838;50.144;8.176;2023-05-10T06:08:45;12.30;99.90
17442;DHT22;8838;50.144;8.176;2023-05-10T06:11:12;12.40;99.90
17442;DHT22;8838;50.144;8.176;2023-05-10T06:13:39;12.40;99.90
17442;DHT22;8838;50.144;8.176;2023-05-10T06:16:06;12.40;99.90
17442;DHT22;8838;50.144;8.176;2023-05-10T06:18:34;12.40;99.90
17442;DHT22;8838;50.144;8.176;2023-05-10T06:21:01;12.40;99.90
17442;DHT22;8838;50.144;8.176;2023-05-10T06:23:28;12.50;99.90
17442;DHT22;8838;50.144;8.176;2023-05-10T06:25:58;12.50;99.90
17442;DHT22;8838;50.144;8.176;2023-05-10T06:28:25;12.50;99.90
17442;DHT22;8838;50.144;8.176;2023-05-10T06:30:52;12.50;99.90
17442;DHT22;8838;50.144;8.176;2023-05-10T06:33:19;12.50;99.90
17442;DHT22;8838;50.144;8.176;2023-05-10T06:35:47;12.60;99.90
17442;DHT22;8838;50.144;8.176;2023-05-10T06:38:13;12.70;99.90
17442;DHT22;8838;50.144;8.176;2023-05-10T06:40:54;12.80;99.90
17442;DHT22;8838;50.144;8.176;2023-05-10T06:43:29;13.00;99.90
17442;DHT22;8838;50.144;8.176;2023-05-10T06:45:58;13.00;99.90
17442;DHT22;8838;50.144;8.176;2023-05-10T06:48:25;13.00;99.90
17442;DHT22;8838;50.144;8.176;2023-05-10T06:50:53;13.10;99.90
17442;DHT22;8838;50.144;8.176;2023-05-10T06:53:20;13.00;99.90
17442;DHT22;8838;50.144;8.176;2023-05-10T06:55:49;12.90;99.90
17442;DHT22;8838;50.144;8.176;2023-05-10T06:58:15;12.90;99.90
17442;DHT22;8838;50.144;8.176;2023-05-10T07:00:42;13.00;99.90
17442;DHT22;8838;50.144;8.176;2023-05-10T07:03:10;13.00;99.90
17442;DHT22;8838;50.144;8.176;2023-05-10T07:05:37;13.00;99.90
17442;DHT22;8838;50.144;8.176;2023-05-10T07:08:05;13.00;99.90
17442;DHT22;8838;50.144;8.176;2023-05-10T07:10:32;13.10;99.90
17442;DHT22;8838;50.144;8.176;2023-05-10T07:12:59;13.10;99.90
17442;DHT22;8838;50.144;8.176;2023-05-10T07:15:26;13.20;99.90
17442;DHT22;8838;50.144;8.176;2023-05-10T07:17:54;13.30;99.90
17442;DHT22;8838;50.144;8.176;2023-05-10T07:20:20;13.30;99.90
17442;DHT22;8838;50.144;8.176;2023-05-10T07:22:47;13.30;99.90
17442;DHT22;8838;50.144;8.176;2023-05-10T07:25:15;13.30;99.90
17442;DHT22;8838;50.144;8.176;2023-05-10T07:27:42;13.40;99.90
17442;DHT22;8838;50.144;8.176;2023-05-10T07:30:10;13.40;99.90
17442;DHT22;8838;50.144;8.176;2023-05-10T07:32:36;13.50;99.90
17442;DHT22;8838;50.144;8.176;2023-05-10T07:35:05;13.60;99.90
17442;DHT22;8838;50.144;8.176;2023-05-10T07:37:32;13.60;99.90
17442;DHT22;8838;50.144;8.176;2023-05-10T07:39:59;13.60;99.90
17442;DHT22;8838;50.144;8.176;2023-05-10T07:42:27;13.60;99.90
17442;DHT22;8838;50.144;8.176;2023-05-10T07:44:54;13.50;99.90
17442;DHT22;8838;50.144;8.176;2023-05-10T07:47:20;13.60;99.90
17442;DHT22;8838;50.144;8.176;2023-05-10T07:49:47;13.70;99.90
17442;DHT22;8838;50.144;8.176;2023-05-10T07:52:14;13.80;99.90
17442;DHT22;8838;50.144;8.176;2023-05-10T07:54:41;13.90;99.90
17442;DHT22;8838;50.144;8.176;2023-05-10T07:57:07;14.00;99.90
17442;DHT22;8838;50.144;8.176;2023-05-10T07:59:36;14.10;99.90
17442;DHT22;8838;50.144;8.176;2023-05-10T08:02:02;14.00;99.90
17442;DHT22;8838;50.144;8.176;2023-05-10T08:04:29;14.00;99.90
17442;DHT22;8838;50.144;8.176;2023-05-10T08:06:56;14.10;99.90
17442;DHT22;8838;50.144;8.176;2023-05-10T08:09:23;14.10;99.90
17442;DHT22;8838;50.144;8.176;2023-05-10T08:11:50;13.70;99.90
17442;DHT22;8838;50.144;8.176;2023-05-10T08:14:16;13.70;99.90
17442;DHT22;8838;50.144;8.176;2023-05-10T08:16:45;13.60;99.90
17442;DHT22;8838;50.144;8.176;2023-05-10T08:19:11;13.60;99.90
17442;DHT22;8838;50.144;8.176;2023-05-10T08:21:38;13.50;99.90
17442;DHT22;8838;50.144;8.176;2023-05-10T08:24:07;13.70;99.90
17442;DHT22;8838;50.144;8.176;2023-05-10T08:26:37;13.80;99.90
17442;DHT22;8838;50.144;8.176;2023-05-10T08:29:04;13.90;99.90
17442;DHT22;8838;50.144;8.176;2023-05-10T08:31:31;13.90;99.90
17442;DHT22;8838;50.144;8.176;2023-05-10T08:33:59;14.10;99.90
17442;DHT22;8838;50.144;8.176;2023-05-10T08:36:26;14.30;99.90
17442;DHT22;8838;50.144;8.176;2023-05-10T08:38:54;14.30;99.90
17442;DHT22;8838;50.144;8.176;2023-05-10T08:41:22;14.40;99.90
17442;DHT22;8838;50.144;8.176;2023-05-10T08:43:50;14.60;99.90
17442;DHT22;8838;50.144;8.176;2023-05-10T08:46:18;14.60;99.90
17442;DHT22;8838;50.144;8.176;2023-05-10T08:48:46;14.60;99.90
17442;DHT22;8838;50.144;8.176;2023-05-10T08:51:18;14.50;99.90
17442;DHT22;8838;50.144;8.176;2023-05-10T08:53:45;14.50;99.90
17442;DHT22;8838;50.144;8.176;2023-05-10T08:56:12;14.60;99.90
17442;DHT22;8838;50.144;8.176;2023-05-10T08:58:41;14.70;99.90
17442;DHT22;8838;50.144;8.176;2023-05-10T09:01:08;14.80;99.90
17442;DHT22;8838;50.144;8.176;2023-05-10T09:03:38;14.90;99.90
17442;DHT22;8838;50.144;8.176;2023-05-10T09:06:05;15.10;99.90
17442;DHT22;8838;50.144;8.176;2023-05-10T09:08:34;15.30;99.90
17442;DHT22;8838;50.144;8.176;2023-05-10T09:11:03;15.50;99.90
17442;DHT22;8838;50.144;8.176;2023-05-10T09:13:30;15.60;99.90
17442;DHT22;8838;50.144;8.176;2023-05-10T09:15:58;15.50;99.90
17442;DHT22;8838;50.144;8.176;2023-05-10T09:18:25;15.20;99.90
17442;DHT22;8838;50.144;8.176;2023-05-10T09:20:51;15.10;99.90
17442;DHT22;8838;50.144;8.176;2023-05-10T09:23:18;14.80;99.90
17442;DHT22;8838;50.144;8.176;2023-05-10T09:25:46;15.20;99.90
17442;DHT22;8838;50.144;8.176;2023-05-10T09:28:13;15.70;99.90
17442;DHT22;8838;50.144;8.176;2023-05-10T09:30:40;16.10;99.90
17442;DHT22;8838;50.144;8.176;2023-05-10T09:33:08;16.80;99.90
17442;DHT22;8838;50.144;8.176;2023-05-10T09:35:35;17.00;99.90
17442;DHT22;8838;50.144;8.176;2023-05-10T09:38:03;17.00;99.90
17442;DHT22;8838;50.144;8.176;2023-05-10T09:40:31;16.70;99.90
17442;DHT22;8838;50.144;8.176;2023-05-10T09:43:00;16.20;99.90
17442;DHT22;8838;50.144;8.176;2023-05-10T09:45:28;15.90;99.90
17442;DHT22;8838;50.144;8.176;2023-05-10T09:47:55;15.50;99.90
17442;DHT22;8838;50.144;8.176;2023-05-10T09:50:23;15.30;99.90
17442;DHT22;8838;50.144;8.176;2023-05-10T09:52:51;15.00;99.90
17442;DHT22;8838;50.144;8.176;2023-05-10T09:55:21;14.80;99.90
17442;DHT22;8838;50.144;8.176;2023-05-10T09:57:48;14.80;99.90
17442;DHT22;8838;50.144;8.176;2023-05-10T10:00:19;14.90;99.90
17442;DHT22;8838;50.144;8.176;2023-05-10T10:02:47;15.10;99.90
17442;DHT22;8838;50.144;8.176;2023-05-10T10:05:16;15.60;99.90
17442;DHT22;8838;50.144;8.176;2023-05-10T10:07:43;15.90;99.90
17442;DHT22;8838;50.144;8.176;2023-05-10T10:10:10;16.50;99.90
17442;DHT22;8838;50.144;8.176;2023-05-10T10:12:39;17.00;99.90
17442;DHT22;8838;50.144;8.176;2023-05-10T10:15:08;16.90;99.90
17442;DHT22;8838;50.144;8.176;2023-05-10T10:17:37;16.50;99.90
17442;DHT22;8838;50.144;8.176;2023-05-10T10:20:06;15.70;99.90
17442;DHT22;8838;50.144;8.176;2023-05-10T10:22:33;15.60;99.90
17442;DHT22;8838;50.144;8.176;2023-05-10T10:25:00;15.40;99.90
17442;DHT22;8838;50.144;8.176;2023-05-10T10:27:36;15.30;99.90
17442;DHT22;8838;50.144;8.176;2023-05-10T10:30:15;15.10;99.90
17442;DHT22;8838;50.144;8.176;2023-05-10T10:32:59;15.20;99.90
17442;DHT22;8838;50.144;8.176;2023-05-10T10:35:28;15.20;99.90
17442;DHT22;8838;50.144;8.176;2023-05-10T10:37:55;15.50;99.90
17442;DHT22;8838;50.144;8.176;2023-05-10T10:40:26;15.60;99.90
17442;DHT22;8838;50.144;8.176;2023-05-10T10:42:53;15.80;99.90
17442;DHT22;8838;50.144;8.176;2023-05-10T10:45:21;15.80;99.90
17442;DHT22;8838;50.144;8.176;2023-05-10T10:47:54;15.60;99.90
17442;DHT22;8838;50.144;8.176;2023-05-10T10:50:44;15.80;99.90
17442;DHT22;8838;50.144;8.176;2023-05-10T10:53:12;15.90;99.90
17442;DHT22;8838;50.144;8.176;2023-05-10T10:55:46;15.90;99.90
17442;DHT22;8838;50.144;8.176;2023-05-10T10:58:29;16.00;99.90
17442;DHT22;8838;50.144;8.176;2023-05-10T11:01:10;16.00;99.90
17442;DHT22;8838;50.144;8.176;2023-05-10T11:03:38;16.00;99.90
17442;DHT22;8838;50.144;8.176;2023-05-10T11:06:06;16.10;99.90
17442;DHT22;8838;50.144;8.176;2023-05-10T11:08:34;16.40;99.90
17442;DHT22;8838;50.144;8.176;2023-05-10T11:11:04;16.40;99.90
17442;DHT22;8838;50.144;8.176;2023-05-10T11:13:34;16.80;99.90
17442;DHT22;8838;50.144;8.176;2023-05-10T11:16:15;17.00;99.90
17442;DHT22;8838;50.144;8.176;2023-05-10T11:18:56;17.00;99.90
17442;DHT22;8838;50.144;8.176;2023-05-10T11:21:24;16.50;99.90
17442;DHT22;8838;50.144;8.176;2023-05-10T11:23:52;16.20;99.90
17442;DHT22;8838;50.144;8.176;2023-05-10T11:26:22;16.00;99.90
17442;DHT22;8838;50.144;8.176;2023-05-10T11:28:52;16.30;99.90
17442;DHT22;8838;50.144;8.176;2023-05-10T11:31:20;16.50;99.90
17442;DHT22;8838;50.144;8.176;2023-05-10T11:33:50;16.80;99.90
17442;DHT22;8838;50.144;8.176;2023-05-10T11:36:19;17.10;99.90
17442;DHT22;8838;50.144;8.176;2023-05-10T11:38:47;17.30;99.90
17442;DHT22;8838;50.144;8.176;2023-05-10T11:41:16;17.10;99.90
17442;DHT22;8838;50.144;8.176;2023-05-10T11:43:45;17.10;99.90
17442;DHT22;8838;50.144;8.176;2023-05-10T11:46:14;17.40;99.90
17442;DHT22;8838;50.144;8.176;2023-05-10T11:48:46;17.30;99.90
17442;DHT22;8838;50.144;8.176;2023-05-10T11:51:13;17.20;99.90
17442;DHT22;8838;50.144;8.176;2023-05-10T11:53:42;17.10;99.90
17442;DHT22;8838;50.144;8.176;2023-05-10T11:56:10;17.20;99.90
17442;DHT22;8838;50.144;8.176;2023-05-10T11:58:38;17.50;99.90
17442;DHT22;8838;50.144;8.176;2023-05-10T12:01:06;17.80;99.90
17442;DHT22;8838;50.144;8.176;2023-05-10T12:03:34;18.00;99.90
17442;DHT22;8838;50.144;8.176;2023-05-10T12:06:02;18.30;99.90
17442;DHT22;8838;50.144;8.176;2023-05-10T12:08:30;18.60;99.90
17442;DHT22;8838;50.144;8.176;2023-05-10T12:11:06;18.70;99.90
17442;DHT22;8838;50.144;8.176;2023-05-10T12:13:37;18.60;99.90
17442;DHT22;8838;50.144;8.176;2023-05-10T12:16:13;18.50;99.90
17442;DHT22;8838;50.144;8.176;2023-05-10T12:18:40;18.40;99.90
17442;DHT22;8838;50.144;8.176;2023-05-10T12:21:09;18.40;99.90
17442;DHT22;8838;50.144;8.176;2023-05-10T12:23:36;18.50;99.90
17442;DHT22;8838;50.144;8.176;2023-05-10T12:26:05;18.40;99.90
17442;DHT22;8838;50.144;8.176;2023-05-10T12:28:32;18.10;99.90
17442;DHT22;8838;50.144;8.176;2023-05-10T12:31:01;18.10;99.90
17442;DHT22;8838;50.144;8.176;2023-05-10T12:33:36;17.80;99.90
17442;DHT22;8838;50.144;8.176;2023-05-10T12:36:05;17.80;99.90
17442;DHT22;8838;50.144;8.176;2023-05-10T12:38:33;17.60;99.90
17442;DHT22;8838;50.144;8.176;2023-05-10T12:41:01;17.60;99.90
17442;DHT22;8838;50.144;8.176;2023-05-10T12:43:29;17.40;99.90
17442;DHT22;8838;50.144;8.176;2023-05-10T12:45:57;17.20;99.90
17442;DHT22;8838;50.144;8.176;2023-05-10T12:48:24;17.00;99.90
17442;DHT22;8838;50.144;8.176;2023-05-10T12:50:51;16.90;99.90
17442;DHT22;8838;50.144;8.176;2023-05-10T12:53:18;16.50;99.90
17442;DHT22;8838;50.144;8.176;2023-05-10T12:55:45;16.30;99.90
17442;DHT22;8838;50.144;8.176;2023-05-10T12:58:12;16.10;99.90
17442;DHT22;8838;50.144;8.176;2023-05-10T13:00:40;15.80;99.90
17442;DHT22;8838;50.144;8.176;2023-05-10T13:03:07;15.70;99.90
17442;DHT22;8838;50.144;8.176;2023-05-10T13:05:34;15.70;99.90
17442;DHT22;8838;50.144;8.176;2023-05-10T13:08:01;15.60;99.90
17442;DHT22;8838;50.144;8.176;2023-05-10T13:10:29;15.70;99.90
17442;DHT22;8838;50.144;8.176;2023-05-10T13:12:56;15.70;99.90
17442;DHT22;8838;50.144;8.176;2023-05-10T13:15:23;15.60;99.90
17442;DHT22;8838;50.144;8.176;2023-05-10T13:17:53;15.60;99.90
17442;DHT22;8838;50.144;8.176;2023-05-10T13:20:20;15.60;99.90
17442;DHT22;8838;50.144;8.176;2023-05-10T13:22:47;15.80;99.90
17442;DHT22;8838;50.144;8.176;2023-05-10T13:25:14;16.00;99.90
17442;DHT22;8838;50.144;8.176;2023-05-10T13:27:41;16.00;99.90
17442;DHT22;8838;50.144;8.176;2023-05-10T13:30:09;16.00;99.90
17442;DHT22;8838;50.144;8.176;2023-05-10T13:32:37;16.00;99.90
17442;DHT22;8838;50.144;8.176;2023-05-10T13:35:07;16.10;99.90
17442;DHT22;8838;50.144;8.176;2023-05-10T13:37:34;16.10;99.90
17442;DHT22;8838;50.144;8.176;2023-05-10T13:40:03;16.30;99.90
17442;DHT22;8838;50.144;8.176;2023-05-10T13:42:30;16.30;99.90
17442;DHT22;8838;50.144;8.176;2023-05-10T13:44:58;16.30;99.90
17442;DHT22;8838;50.144;8.176;2023-05-10T13:47:25;16.30;99.90
17442;DHT22;8838;50.144;8.176;2023-05-10T13:49:52;16.40;99.90
17442;DHT22;8838;50.144;8.176;2023-05-10T13:52:20;16.70;99.90
17442;DHT22;8838;50.144;8.176;2023-05-10T13:54:47;16.80;99.90
17442;DHT22;8838;50.144;8.176;2023-05-10T13:57:14;17.00;99.90
17442;DHT22;8838;50.144;8.176;2023-05-10T13:59:42;16.90;99.90
17442;DHT22;8838;50.144;8.176;2023-05-10T14:02:09;16.90;99.90
17442;DHT22;8838;50.144;8.176;2023-05-10T14:04:36;16.90;99.90
17442;DHT22;8838;50.144;8.176;2023-05-10T14:07:03;16.90;99.90
17442;DHT22;8838;50.144;8.176;2023-05-10T14:09:31;16.90;99.90
17442;DHT22;8838;50.144;8.176;2023-05-10T14:11:58;16.90;99.90
17442;DHT22;8838;50.144;8.176;2023-05-10T14:14:24;16.60;99.90
17442;DHT22;8838;50.144;8.176;2023-05-10T14:16:52;16.60;99.90
17442;DHT22;8838;50.144;8.176;2023-05-10T14:19:18;16.60;99.90
17442;DHT22;8838;50.144;8.176;2023-05-10T14:21:46;16.70;99.90
17442;DHT22;8838;50.144;8.176;2023-05-10T14:24:12;16.60;99.90
17442;DHT22;8838;50.144;8.176;2023-05-10T14:26:41;16.70;99.90
17442;DHT22;8838;50.144;8.176;2023-05-10T14:29:07;16.70;99.90
17442;DHT22;8838;50.144;8.176;2023-05-10T14:31:34;16.70;99.90
17442;DHT22;8838;50.144;8.176;2023-05-10T14:34:01;16.80;99.90
17442;DHT22;8838;50.144;8.176;2023-05-10T14:36:28;16.70;99.90
17442;DHT22;8838;50.144;8.176;2023-05-10T14:38:55;16.60;99.90
17442;DHT22;8838;50.144;8.176;2023-05-10T14:41:22;16.50;99.90
17442;DHT22;8838;50.144;8.176;2023-05-10T14:43:51;16.70;99.90
17442;DHT22;8838;50.144;8.176;2023-05-10T14:46:18;16.60;99.90
17442;DHT22;8838;50.144;8.176;2023-05-10T14:48:45;16.60;99.90
17442;DHT22;8838;50.144;8.176;2023-05-10T14:51:12;16.70;99.90
17442;DHT22;8838;50.144;8.176;2023-05-10T14:53:39;16.80;99.90
17442;DHT22;8838;50.144;8.176;2023-05-10T14:56:06;16.70;99.90
17442;DHT22;8838;50.144;8.176;2023-05-10T14:58:33;16.60;99.90
17442;DHT22;8838;50.144;8.176;2023-05-10T15:01:01;16.70;99.90
17442;DHT22;8838;50.144;8.176;2023-05-10T15:03:28;16.60;99.90
17442;DHT22;8838;50.144;8.176;2023-05-10T15:05:55;16.70;99.90
17442;DHT22;8838;50.144;8.176;2023-05-10T15:08:23;16.80;99.90
17442;DHT22;8838;50.144;8.176;2023-05-10T15:10:50;16.70;99.90
17442;DHT22;8838;50.144;8.176;2023-05-10T15:13:17;16.50;99.90
17442;DHT22;8838;50.144;8.176;2023-05-10T15:15:44;16.70;99.90
17442;DHT22;8838;50.144;8.176;2023-05-10T15:18:12;16.90;99.90
17442;DHT22;8838;50.144;8.176;2023-05-10T15:20:39;17.00;99.90
17442;DHT22;8838;50.144;8.176;2023-05-10T15:23:06;17.10;99.90
17442;DHT22;8838;50.144;8.176;2023-05-10T15:25:33;17.20;99.90
17442;DHT22;8838;50.144;8.176;2023-05-10T15:28:03;17.20;99.90
17442;DHT22;8838;50.144;8.176;2023-05-10T15:30:30;17.00;99.90
17442;DHT22;8838;50.144;8.176;2023-05-10T15:32:57;16.90;99.90
17442;DHT22;8838;50.144;8.176;2023-05-10T15:35:25;16.60;99.90
17442;DHT22;8838;50.144;8.176;2023-05-10T15:37:52;16.50;99.90
17442;DHT22;8838;50.144;8.176;2023-05-10T15:40:19;16.40;99.90
17442;DHT22;8838;50.144;8.176;2023-05-10T15:42:46;16.30;99.90
17442;DHT22;8838;50.144;8.176;2023-05-10T15:45:13;16.20;99.90
17442;DHT22;8838;50.144;8.176;2023-05-10T15:47:40;16.20;99.90
17442;DHT22;8838;50.144;8.176;2023-05-10T15:50:08;16.20;99.90
17442;DHT22;8838;50.144;8.176;2023-05-10T15:52:36;16.20;99.90
17442;DHT22;8838;50.144;8.176;2023-05-10T15:55:03;16.20;99.90
17442;DHT22;8838;50.144;8.176;2023-05-10T15:57:37;16.30;99.90